Portada
METAR-TAF:

METAR-TAF

Aeroports :

Katherine, Austràlia

latitud: 14-26S, longitud: 132-16E, altitud: 108 m

Observació

L'informe es va fer fa 21 minuts, a les 16:30 UTC
Vent 5 kt del Est
Temperatura 18°C
Humitat 68%
Pressió 1015 hPa
Visibilitat 10 km o més

METAR: YPTN 271630Z AUTO 10005KT 9999 // NCD 18/12 Q1015 RF00.0/000.0

Hora: 02:21 (16:51 UTC)

Pronòstic

L'informe es va fer fa 6 hores i 30 minuts, a les 10:21 UTC
Pronòstic vàlid del 27 a les 12 UTC al 28 a les 12 UTC
Vent 10 kt del Est/Sud-Est
Visibilitat 10 km o més
sense núvols per sota de 1500 mi sense presència de cumulonimbus.

TAF: YPTN 271021Z 2712/2812 11010KT CAVOK

Observacions i pronòstics meteorològics de més de 4000 aeroports (METAR i TAF).

Les estacions disponibles són els punts grocs i vermells al mapa.

Posi el ratolí al punt desitjat per veure el nom de l'estació.

Feu clic per veure les observacions i els pronòstics meteorològics.

Per canviar el mapa: feu clic els botons verds amb una creu de color negre per apropar; al botó verd amb un guió per allunyar la imatge; o en les fletxes verdes per a mapes adjacents.


METAR-TAF: